sensor_id;sensor_type;location;lat;lon;timestamp;P1;durP1;ratioP1;P2;durP2;ratioP2
56435;SDS011;42335;44.872;20.658;2024-01-30T00:01:48;144.40;;;78.53;;
56435;SDS011;42335;44.872;20.658;2024-01-30T00:04:14;132.65;;;72.25;;
56435;SDS011;42335;44.872;20.658;2024-01-30T00:06:41;132.88;;;71.70;;
56435;SDS011;42335;44.872;20.658;2024-01-30T00:09:07;147.85;;;77.22;;
56435;SDS011;42335;44.872;20.658;2024-01-30T00:11:34;133.00;;;72.13;;
56435;SDS011;42335;44.872;20.658;2024-01-30T00:13:59;126.20;;;65.05;;
56435;SDS011;42335;44.872;20.658;2024-01-30T00:16:26;125.40;;;64.10;;
56435;SDS011;42335;44.872;20.658;2024-01-30T00:18:52;122.53;;;66.85;;
56435;SDS011;42335;44.872;20.658;2024-01-30T00:21:19;112.72;;;61.28;;
56435;SDS011;42335;44.872;20.658;2024-01-30T00:23:45;116.90;;;62.33;;
56435;SDS011;42335;44.872;20.658;2024-01-30T00:26:11;111.40;;;66.80;;
56435;SDS011;42335;44.872;20.658;2024-01-30T00:28:37;109.60;;;67.35;;
56435;SDS011;42335;44.872;20.658;2024-01-30T00:31:03;129.27;;;74.43;;
56435;SDS011;42335;44.872;20.658;2024-01-30T00:33:29;117.10;;;70.38;;
56435;SDS011;42335;44.872;20.658;2024-01-30T00:35:55;115.78;;;69.78;;
56435;SDS011;42335;44.872;20.658;2024-01-30T00:38:22;114.70;;;70.95;;
56435;SDS011;42335;44.872;20.658;2024-01-30T00:40:47;113.65;;;68.35;;
56435;SDS011;42335;44.872;20.658;2024-01-30T00:43:13;120.32;;;70.05;;
56435;SDS011;42335;44.872;20.658;2024-01-30T00:45:40;112.38;;;66.85;;
56435;SDS011;42335;44.872;20.658;2024-01-30T00:48:05;118.30;;;67.43;;
56435;SDS011;42335;44.872;20.658;2024-01-30T00:50:31;107.13;;;65.43;;
56435;SDS011;42335;44.872;20.658;2024-01-30T00:52:57;109.03;;;64.95;;
56435;SDS011;42335;44.872;20.658;2024-01-30T00:55:23;116.63;;;65.38;;
56435;SDS011;42335;44.872;20.658;2024-01-30T00:57:48;118.10;;;65.28;;
56435;SDS011;42335;44.872;20.658;2024-01-30T01:00:14;105.10;;;57.63;;
56435;SDS011;42335;44.872;20.658;2024-01-30T01:02:43;90.68;;;52.67;;
56435;SDS011;42335;44.872;20.658;2024-01-30T01:05:10;100.95;;;56.45;;
56435;SDS011;42335;44.872;20.658;2024-01-30T01:07:35;101.18;;;53.70;;
56435;SDS011;42335;44.872;20.658;2024-01-30T01:10:01;93.60;;;50.95;;
56435;SDS011;42335;44.872;20.658;2024-01-30T01:12:27;95.40;;;51.83;;
56435;SDS011;42335;44.872;20.658;2024-01-30T01:14:53;92.70;;;49.78;;
56435;SDS011;42335;44.872;20.658;2024-01-30T01:17:19;98.05;;;53.35;;
56435;SDS011;42335;44.872;20.658;2024-01-30T01:19:45;95.68;;;49.22;;
56435;SDS011;42335;44.872;20.658;2024-01-30T01:22:10;97.75;;;50.20;;
56435;SDS011;42335;44.872;20.658;2024-01-30T01:24:36;94.25;;;49.25;;
56435;SDS011;42335;44.872;20.658;2024-01-30T01:27:02;104.32;;;50.55;;
56435;SDS011;42335;44.872;20.658;2024-01-30T01:29:28;90.75;;;44.95;;
56435;SDS011;42335;44.872;20.658;2024-01-30T01:31:54;90.68;;;46.33;;
56435;SDS011;42335;44.872;20.658;2024-01-30T01:34:21;101.80;;;48.15;;
56435;SDS011;42335;44.872;20.658;2024-01-30T01:36:46;89.05;;;44.00;;
56435;SDS011;42335;44.872;20.658;2024-01-30T01:39:12;81.03;;;42.83;;
56435;SDS011;42335;44.872;20.658;2024-01-30T01:41:38;90.13;;;43.67;;
56435;SDS011;42335;44.872;20.658;2024-01-30T01:44:04;86.68;;;43.53;;
56435;SDS011;42335;44.872;20.658;2024-01-30T01:46:30;74.50;;;39.88;;
56435;SDS011;42335;44.872;20.658;2024-01-30T01:48:58;70.85;;;38.60;;
56435;SDS011;42335;44.872;20.658;2024-01-30T01:51:27;70.07;;;39.15;;
56435;SDS011;42335;44.872;20.658;2024-01-30T01:53:55;71.80;;;39.58;;
56435;SDS011;42335;44.872;20.658;2024-01-30T01:56:21;77.35;;;40.53;;
56435;SDS011;42335;44.872;20.658;2024-01-30T01:58:48;70.88;;;39.22;;
56435;SDS011;42335;44.872;20.658;2024-01-30T02:01:16;62.83;;;35.17;;
56435;SDS011;42335;44.872;20.658;2024-01-30T02:03:45;63.42;;;34.55;;
56435;SDS011;42335;44.872;20.658;2024-01-30T02:06:12;79.68;;;41.53;;
56435;SDS011;42335;44.872;20.658;2024-01-30T02:08:41;73.43;;;42.03;;
56435;SDS011;42335;44.872;20.658;2024-01-30T02:11:07;68.93;;;39.33;;
56435;SDS011;42335;44.872;20.658;2024-01-30T02:13:34;68.63;;;38.13;;
56435;SDS011;42335;44.872;20.658;2024-01-30T02:15:59;68.40;;;38.10;;
56435;SDS011;42335;44.872;20.658;2024-01-30T02:18:26;63.78;;;35.72;;
56435;SDS011;42335;44.872;20.658;2024-01-30T02:20:53;62.05;;;35.60;;
56435;SDS011;42335;44.872;20.658;2024-01-30T02:23:19;50.58;;;32.88;;
56435;SDS011;42335;44.872;20.658;2024-01-30T02:25:47;56.55;;;33.78;;
56435;SDS011;42335;44.872;20.658;2024-01-30T02:28:13;61.22;;;35.83;;
56435;SDS011;42335;44.872;20.658;2024-01-30T02:30:39;50.42;;;31.38;;
56435;SDS011;42335;44.872;20.658;2024-01-30T02:33:05;56.58;;;34.05;;
56435;SDS011;42335;44.872;20.658;2024-01-30T02:35:31;56.55;;;33.10;;
56435;SDS011;42335;44.872;20.658;2024-01-30T02:37:58;55.88;;;34.85;;
56435;SDS011;42335;44.872;20.658;2024-01-30T02:40:24;60.03;;;35.17;;
56435;SDS011;42335;44.872;20.658;2024-01-30T02:42:50;59.70;;;34.63;;
56435;SDS011;42335;44.872;20.658;2024-01-30T02:45:15;56.35;;;35.63;;
56435;SDS011;42335;44.872;20.658;2024-01-30T02:47:41;68.22;;;36.83;;
56435;SDS011;42335;44.872;20.658;2024-01-30T02:50:07;61.28;;;35.45;;
56435;SDS011;42335;44.872;20.658;2024-01-30T02:52:33;61.08;;;34.47;;
56435;SDS011;42335;44.872;20.658;2024-01-30T02:54:59;56.35;;;34.03;;
56435;SDS011;42335;44.872;20.658;2024-01-30T02:57:25;58.08;;;35.55;;
56435;SDS011;42335;44.872;20.658;2024-01-30T02:59:51;62.30;;;35.53;;
56435;SDS011;42335;44.872;20.658;2024-01-30T03:02:17;65.40;;;37.03;;
56435;SDS011;42335;44.872;20.658;2024-01-30T03:04:43;62.42;;;36.55;;
56435;SDS011;42335;44.872;20.658;2024-01-30T03:07:09;54.65;;;32.75;;
56435;SDS011;42335;44.872;20.658;2024-01-30T03:09:34;57.08;;;32.65;;
56435;SDS011;42335;44.872;20.658;2024-01-30T03:12:01;61.17;;;31.40;;
56435;SDS011;42335;44.872;20.658;2024-01-30T03:14:28;56.05;;;33.30;;
56435;SDS011;42335;44.872;20.658;2024-01-30T03:16:55;57.92;;;34.83;;
56435;SDS011;42335;44.872;20.658;2024-01-30T03:19:21;52.95;;;33.67;;
56435;SDS011;42335;44.872;20.658;2024-01-30T03:21:47;53.58;;;31.30;;
56435;SDS011;42335;44.872;20.658;2024-01-30T03:24:12;56.72;;;33.50;;
56435;SDS011;42335;44.872;20.658;2024-01-30T03:26:38;69.30;;;32.42;;
56435;SDS011;42335;44.872;20.658;2024-01-30T03:29:04;55.67;;;34.53;;
56435;SDS011;42335;44.872;20.658;2024-01-30T03:31:30;51.33;;;31.15;;
56435;SDS011;42335;44.872;20.658;2024-01-30T03:33:55;56.08;;;32.65;;
56435;SDS011;42335;44.872;20.658;2024-01-30T03:36:21;51.55;;;31.65;;
56435;SDS011;42335;44.872;20.658;2024-01-30T03:38:47;53.10;;;32.08;;
56435;SDS011;42335;44.872;20.658;2024-01-30T03:41:12;55.88;;;34.72;;
56435;SDS011;42335;44.872;20.658;2024-01-30T03:43:38;60.17;;;34.70;;
56435;SDS011;42335;44.872;20.658;2024-01-30T03:46:04;55.95;;;36.03;;
56435;SDS011;42335;44.872;20.658;2024-01-30T03:48:30;53.58;;;33.17;;
56435;SDS011;42335;44.872;20.658;2024-01-30T03:50:56;54.45;;;35.63;;
56435;SDS011;42335;44.872;20.658;2024-01-30T03:53:21;62.15;;;36.08;;
56435;SDS011;42335;44.872;20.658;2024-01-30T03:55:47;61.63;;;37.05;;
56435;SDS011;42335;44.872;20.658;2024-01-30T03:58:13;57.67;;;35.78;;
56435;SDS011;42335;44.872;20.658;2024-01-30T04:00:39;60.60;;;37.92;;
56435;SDS011;42335;44.872;20.658;2024-01-30T04:03:06;64.30;;;37.22;;
56435;SDS011;42335;44.872;20.658;2024-01-30T04:05:32;83.28;;;46.17;;
56435;SDS011;42335;44.872;20.658;2024-01-30T04:07:58;77.35;;;41.65;;
56435;SDS011;42335;44.872;20.658;2024-01-30T04:10:24;69.10;;;41.22;;
56435;SDS011;42335;44.872;20.658;2024-01-30T04:12:50;74.93;;;42.90;;
56435;SDS011;42335;44.872;20.658;2024-01-30T04:15:19;66.75;;;40.50;;
56435;SDS011;42335;44.872;20.658;2024-01-30T04:17:45;71.10;;;41.83;;
56435;SDS011;42335;44.872;20.658;2024-01-30T04:20:14;70.43;;;40.35;;
56435;SDS011;42335;44.872;20.658;2024-01-30T04:22:41;72.70;;;43.88;;
56435;SDS011;42335;44.872;20.658;2024-01-30T04:25:11;67.47;;;40.78;;
56435;SDS011;42335;44.872;20.658;2024-01-30T04:27:37;78.90;;;43.30;;
56435;SDS011;42335;44.872;20.658;2024-01-30T04:30:03;77.18;;;42.88;;
56435;SDS011;42335;44.872;20.658;2024-01-30T04:32:29;75.75;;;43.50;;
56435;SDS011;42335;44.872;20.658;2024-01-30T04:34:55;81.35;;;46.13;;
56435;SDS011;42335;44.872;20.658;2024-01-30T04:37:20;83.45;;;45.58;;
56435;SDS011;42335;44.872;20.658;2024-01-30T04:39:46;84.53;;;47.92;;
56435;SDS011;42335;44.872;20.658;2024-01-30T04:42:12;90.00;;;48.15;;
56435;SDS011;42335;44.872;20.658;2024-01-30T04:44:38;84.15;;;49.38;;
56435;SDS011;42335;44.872;20.658;2024-01-30T04:47:04;84.25;;;50.67;;
56435;SDS011;42335;44.872;20.658;2024-01-30T04:49:31;92.75;;;51.60;;
56435;SDS011;42335;44.872;20.658;2024-01-30T04:51:57;89.88;;;48.38;;
56435;SDS011;42335;44.872;20.658;2024-01-30T04:54:23;92.82;;;49.63;;
56435;SDS011;42335;44.872;20.658;2024-01-30T04:56:49;97.88;;;52.00;;
56435;SDS011;42335;44.872;20.658;2024-01-30T04:59:15;92.57;;;50.97;;
56435;SDS011;42335;44.872;20.658;2024-01-30T05:01:41;94.63;;;50.72;;
56435;SDS011;42335;44.872;20.658;2024-01-30T05:04:09;104.15;;;56.85;;
56435;SDS011;42335;44.872;20.658;2024-01-30T05:06:36;97.05;;;55.30;;
56435;SDS011;42335;44.872;20.658;2024-01-30T05:09:02;100.43;;;54.22;;
56435;SDS011;42335;44.872;20.658;2024-01-30T05:11:29;305.50;;;168.07;;
56435;SDS011;42335;44.872;20.658;2024-01-30T05:13:55;173.60;;;92.80;;
56435;SDS011;42335;44.872;20.658;2024-01-30T05:16:21;129.88;;;65.50;;
56435;SDS011;42335;44.872;20.658;2024-01-30T05:18:47;109.63;;;57.38;;
56435;SDS011;42335;44.872;20.658;2024-01-30T05:21:13;97.72;;;57.83;;
56435;SDS011;42335;44.872;20.658;2024-01-30T05:23:40;98.63;;;55.25;;
56435;SDS011;42335;44.872;20.658;2024-01-30T05:26:06;111.25;;;57.60;;
56435;SDS011;42335;44.872;20.658;2024-01-30T05:28:33;103.70;;;57.40;;
56435;SDS011;42335;44.872;20.658;2024-01-30T05:30:58;91.55;;;53.90;;
56435;SDS011;42335;44.872;20.658;2024-01-30T05:33:24;101.05;;;57.15;;
56435;SDS011;42335;44.872;20.658;2024-01-30T05:35:50;92.63;;;56.67;;
56435;SDS011;42335;44.872;20.658;2024-01-30T05:38:19;94.22;;;56.05;;
56435;SDS011;42335;44.872;20.658;2024-01-30T05:40:45;93.03;;;53.47;;
56435;SDS011;42335;44.872;20.658;2024-01-30T05:43:11;102.65;;;57.50;;
56435;SDS011;42335;44.872;20.658;2024-01-30T05:45:37;98.45;;;55.33;;
56435;SDS011;42335;44.872;20.658;2024-01-30T05:48:02;103.63;;;57.90;;
56435;SDS011;42335;44.872;20.658;2024-01-30T05:50:29;99.57;;;57.20;;
56435;SDS011;42335;44.872;20.658;2024-01-30T05:52:55;97.82;;;56.22;;
56435;SDS011;42335;44.872;20.658;2024-01-30T05:55:20;99.63;;;57.67;;
56435;SDS011;42335;44.872;20.658;2024-01-30T05:57:46;89.88;;;53.78;;
56435;SDS011;42335;44.872;20.658;2024-01-30T06:00:12;95.18;;;56.30;;
56435;SDS011;42335;44.872;20.658;2024-01-30T06:02:38;98.22;;;55.45;;
56435;SDS011;42335;44.872;20.658;2024-01-30T06:05:04;96.10;;;56.83;;
56435;SDS011;42335;44.872;20.658;2024-01-30T06:07:31;95.95;;;56.30;;
56435;SDS011;42335;44.872;20.658;2024-01-30T06:09:56;97.65;;;55.72;;
56435;SDS011;42335;44.872;20.658;2024-01-30T06:12:22;100.45;;;59.00;;
56435;SDS011;42335;44.872;20.658;2024-01-30T06:14:48;104.85;;;60.05;;
56435;SDS011;42335;44.872;20.658;2024-01-30T06:17:14;100.55;;;60.60;;
56435;SDS011;42335;44.872;20.658;2024-01-30T06:19:39;93.25;;;56.88;;
56435;SDS011;42335;44.872;20.658;2024-01-30T06:22:06;95.80;;;57.42;;
56435;SDS011;42335;44.872;20.658;2024-01-30T06:24:31;354.88;;;203.77;;
56435;SDS011;42335;44.872;20.658;2024-01-30T06:26:58;105.63;;;63.45;;
56435;SDS011;42335;44.872;20.658;2024-01-30T06:29:24;95.05;;;59.10;;
56435;SDS011;42335;44.872;20.658;2024-01-30T06:31:51;100.93;;;57.85;;
56435;SDS011;42335;44.872;20.658;2024-01-30T06:34:17;85.20;;;53.05;;
56435;SDS011;42335;44.872;20.658;2024-01-30T06:36:44;83.78;;;52.33;;
56435;SDS011;42335;44.872;20.658;2024-01-30T06:39:09;95.43;;;56.80;;
56435;SDS011;42335;44.872;20.658;2024-01-30T06:41:35;92.50;;;54.40;;
56435;SDS011;42335;44.872;20.658;2024-01-30T06:44:04;84.60;;;52.92;;
56435;SDS011;42335;44.872;20.658;2024-01-30T06:46:31;86.32;;;52.55;;
56435;SDS011;42335;44.872;20.658;2024-01-30T06:48:57;80.60;;;51.13;;
56435;SDS011;42335;44.872;20.658;2024-01-30T06:51:23;78.47;;;50.03;;
56435;SDS011;42335;44.872;20.658;2024-01-30T06:53:49;83.10;;;52.08;;
56435;SDS011;42335;44.872;20.658;2024-01-30T06:56:15;80.63;;;49.55;;
56435;SDS011;42335;44.872;20.658;2024-01-30T06:58:45;89.72;;;51.33;;
56435;SDS011;42335;44.872;20.658;2024-01-30T07:01:12;87.32;;;51.50;;
56435;SDS011;42335;44.872;20.658;2024-01-30T07:03:38;81.35;;;50.00;;
56435;SDS011;42335;44.872;20.658;2024-01-30T07:06:03;92.38;;;52.78;;
56435;SDS011;42335;44.872;20.658;2024-01-30T07:08:30;86.22;;;50.33;;
56435;SDS011;42335;44.872;20.658;2024-01-30T07:10:55;86.55;;;51.97;;
56435;SDS011;42335;44.872;20.658;2024-01-30T07:13:22;87.03;;;53.08;;
56435;SDS011;42335;44.872;20.658;2024-01-30T07:15:48;77.28;;;46.95;;
56435;SDS011;42335;44.872;20.658;2024-01-30T07:18:14;74.78;;;44.47;;
56435;SDS011;42335;44.872;20.658;2024-01-30T07:20:40;78.15;;;46.72;;
56435;SDS011;42335;44.872;20.658;2024-01-30T07:23:11;81.47;;;52.08;;
56435;SDS011;42335;44.872;20.658;2024-01-30T07:25:41;103.40;;;56.25;;
56435;SDS011;42335;44.872;20.658;2024-01-30T07:28:08;75.68;;;49.45;;
56435;SDS011;42335;44.872;20.658;2024-01-30T07:30:37;80.18;;;52.78;;
56435;SDS011;42335;44.872;20.658;2024-01-30T07:33:03;84.85;;;54.03;;
56435;SDS011;42335;44.872;20.658;2024-01-30T07:35:30;87.35;;;53.65;;
56435;SDS011;42335;44.872;20.658;2024-01-30T07:37:56;81.93;;;52.47;;
56435;SDS011;42335;44.872;20.658;2024-01-30T07:40:22;82.68;;;51.53;;
56435;SDS011;42335;44.872;20.658;2024-01-30T07:42:49;75.07;;;51.35;;
56435;SDS011;42335;44.872;20.658;2024-01-30T07:45:14;78.15;;;49.47;;
56435;SDS011;42335;44.872;20.658;2024-01-30T07:47:40;69.38;;;46.10;;
56435;SDS011;42335;44.872;20.658;2024-01-30T07:50:07;65.32;;;42.38;;
56435;SDS011;42335;44.872;20.658;2024-01-30T07:52:34;63.30;;;42.92;;
56435;SDS011;42335;44.872;20.658;2024-01-30T07:55:00;59.60;;;41.72;;
56435;SDS011;42335;44.872;20.658;2024-01-30T07:57:25;54.47;;;38.88;;
56435;SDS011;42335;44.872;20.658;2024-01-30T07:59:51;47.42;;;35.50;;
56435;SDS011;42335;44.872;20.658;2024-01-30T08:02:17;50.78;;;35.38;;
56435;SDS011;42335;44.872;20.658;2024-01-30T08:04:42;46.00;;;35.65;;
56435;SDS011;42335;44.872;20.658;2024-01-30T08:07:08;53.78;;;34.63;;
56435;SDS011;42335;44.872;20.658;2024-01-30T08:09:34;47.55;;;32.88;;
56435;SDS011;42335;44.872;20.658;2024-01-30T08:12:00;34.65;;;28.90;;
56435;SDS011;42335;44.872;20.658;2024-01-30T08:14:25;37.90;;;29.73;;
56435;SDS011;42335;44.872;20.658;2024-01-30T08:16:51;36.83;;;30.40;;
56435;SDS011;42335;44.872;20.658;2024-01-30T08:19:17;42.85;;;27.83;;
56435;SDS011;42335;44.872;20.658;2024-01-30T08:21:44;39.60;;;27.73;;
56435;SDS011;42335;44.872;20.658;2024-01-30T08:24:09;32.45;;;26.38;;
56435;SDS011;42335;44.872;20.658;2024-01-30T08:26:35;32.13;;;23.77;;
56435;SDS011;42335;44.872;20.658;2024-01-30T08:29:02;28.80;;;21.95;;
56435;SDS011;42335;44.872;20.658;2024-01-30T08:31:27;25.40;;;20.00;;
56435;SDS011;42335;44.872;20.658;2024-01-30T08:33:53;24.55;;;20.35;;
56435;SDS011;42335;44.872;20.658;2024-01-30T08:36:19;25.88;;;20.60;;
56435;SDS011;42335;44.872;20.658;2024-01-30T08:38:45;27.42;;;19.60;;
56435;SDS011;42335;44.872;20.658;2024-01-30T08:41:11;26.30;;;19.45;;
56435;SDS011;42335;44.872;20.658;2024-01-30T08:43:37;22.38;;;19.52;;
56435;SDS011;42335;44.872;20.658;2024-01-30T08:46:03;20.13;;;17.85;;
56435;SDS011;42335;44.872;20.658;2024-01-30T08:48:29;22.13;;;17.33;;
56435;SDS011;42335;44.872;20.658;2024-01-30T08:50:54;20.08;;;16.52;;
56435;SDS011;42335;44.872;20.658;2024-01-30T08:53:20;21.08;;;15.98;;
56435;SDS011;42335;44.872;20.658;2024-01-30T08:55:46;19.95;;;15.77;;
56435;SDS011;42335;44.872;20.658;2024-01-30T08:58:12;18.15;;;16.23;;
56435;SDS011;42335;44.872;20.658;2024-01-30T09:00:37;18.05;;;15.13;;
56435;SDS011;42335;44.872;20.658;2024-01-30T09:03:03;20.08;;;15.95;;
56435;SDS011;42335;44.872;20.658;2024-01-30T09:05:29;21.77;;;14.10;;
56435;SDS011;42335;44.872;20.658;2024-01-30T09:07:55;20.40;;;14.52;;
56435;SDS011;42335;44.872;20.658;2024-01-30T09:10:21;21.45;;;15.07;;
56435;SDS011;42335;44.872;20.658;2024-01-30T09:12:47;19.17;;;13.88;;
56435;SDS011;42335;44.872;20.658;2024-01-30T09:15:14;17.83;;;14.82;;
56435;SDS011;42335;44.872;20.658;2024-01-30T09:17:40;21.60;;;16.65;;
56435;SDS011;42335;44.872;20.658;2024-01-30T09:20:06;22.48;;;14.68;;
56435;SDS011;42335;44.872;20.658;2024-01-30T09:22:32;16.25;;;12.90;;
56435;SDS011;42335;44.872;20.658;2024-01-30T09:24:58;18.60;;;14.10;;
56435;SDS011;42335;44.872;20.658;2024-01-30T09:27:23;20.88;;;14.88;;
56435;SDS011;42335;44.872;20.658;2024-01-30T09:29:49;15.20;;;12.93;;
56435;SDS011;42335;44.872;20.658;2024-01-30T09:32:15;20.73;;;16.83;;
56435;SDS011;42335;44.872;20.658;2024-01-30T09:34:42;19.75;;;14.23;;
56435;SDS011;42335;44.872;20.658;2024-01-30T09:37:08;15.80;;;12.32;;
56435;SDS011;42335;44.872;20.658;2024-01-30T09:39:34;15.60;;;13.02;;
56435;SDS011;42335;44.872;20.658;2024-01-30T09:42:01;15.98;;;12.80;;
56435;SDS011;42335;44.872;20.658;2024-01-30T09:44:28;20.23;;;13.07;;
56435;SDS011;42335;44.872;20.658;2024-01-30T09:46:55;15.80;;;12.40;;
56435;SDS011;42335;44.872;20.658;2024-01-30T09:49:23;19.67;;;13.30;;
56435;SDS011;42335;44.872;20.658;2024-01-30T09:51:50;13.65;;;12.25;;
56435;SDS011;42335;44.872;20.658;2024-01-30T09:54:18;18.50;;;12.43;;
56435;SDS011;42335;44.872;20.658;2024-01-30T09:56:44;22.33;;;14.40;;
56435;SDS011;42335;44.872;20.658;2024-01-30T09:59:10;15.95;;;13.90;;
56435;SDS011;42335;44.872;20.658;2024-01-30T10:01:36;17.05;;;12.73;;
56435;SDS011;42335;44.872;20.658;2024-01-30T10:04:02;18.90;;;12.98;;
56435;SDS011;42335;44.872;20.658;2024-01-30T10:06:29;13.63;;;11.15;;
56435;SDS011;42335;44.872;20.658;2024-01-30T10:08:55;14.60;;;10.90;;
56435;SDS011;42335;44.872;20.658;2024-01-30T10:11:21;13.30;;;10.93;;
56435;SDS011;42335;44.872;20.658;2024-01-30T10:13:47;14.90;;;10.98;;
56435;SDS011;42335;44.872;20.658;2024-01-30T10:16:15;16.05;;;11.38;;
56435;SDS011;42335;44.872;20.658;2024-01-30T10:18:42;19.05;;;10.60;;
56435;SDS011;42335;44.872;20.658;2024-01-30T10:21:08;11.80;;;10.23;;
56435;SDS011;42335;44.872;20.658;2024-01-30T10:23:35;14.73;;;11.90;;
56435;SDS011;42335;44.872;20.658;2024-01-30T10:26:02;14.18;;;10.75;;
56435;SDS011;42335;44.872;20.658;2024-01-30T10:28:29;13.82;;;10.68;;
56435;SDS011;42335;44.872;20.658;2024-01-30T10:31:01;13.18;;;10.18;;
56435;SDS011;42335;44.872;20.658;2024-01-30T10:33:30;12.73;;;10.38;;
56435;SDS011;42335;44.872;20.658;2024-01-30T10:35:59;11.80;;;9.50;;
56435;SDS011;42335;44.872;20.658;2024-01-30T10:38:29;13.00;;;10.20;;
56435;SDS011;42335;44.872;20.658;2024-01-30T10:40:57;14.73;;;10.85;;
56435;SDS011;42335;44.872;20.658;2024-01-30T10:43:27;16.30;;;10.77;;
56435;SDS011;42335;44.872;20.658;2024-01-30T10:45:58;13.30;;;10.68;;
56435;SDS011;42335;44.872;20.658;2024-01-30T10:48:46;16.17;;;10.85;;
56435;SDS011;42335;44.872;20.658;2024-01-30T10:51:22;18.88;;;11.60;;
56435;SDS011;42335;44.872;20.658;2024-01-30T10:53:51;13.77;;;12.27;;
56435;SDS011;42335;44.872;20.658;2024-01-30T10:56:18;13.73;;;12.27;;
56435;SDS011;42335;44.872;20.658;2024-01-30T10:58:46;17.90;;;12.55;;
56435;SDS011;42335;44.872;20.658;2024-01-30T11:01:16;14.25;;;12.10;;
56435;SDS011;42335;44.872;20.658;2024-01-30T11:03:44;13.65;;;10.70;;
56435;SDS011;42335;44.872;20.658;2024-01-30T11:06:11;11.85;;;9.65;;
56435;SDS011;42335;44.872;20.658;2024-01-30T11:11:09;19.67;;;12.40;;
56435;SDS011;42335;44.872;20.658;2024-01-30T11:13:35;13.30;;;10.77;;
56435;SDS011;42335;44.872;20.658;2024-01-30T11:16:02;15.23;;;9.52;;
56435;SDS011;42335;44.872;20.658;2024-01-30T11:18:29;11.27;;;9.40;;
56435;SDS011;42335;44.872;20.658;2024-01-30T11:20:56;11.88;;;9.48;;
56435;SDS011;42335;44.872;20.658;2024-01-30T11:23:23;13.98;;;10.25;;
56435;SDS011;42335;44.872;20.658;2024-01-30T11:25:52;13.75;;;8.30;;
56435;SDS011;42335;44.872;20.658;2024-01-30T11:28:18;10.38;;;8.65;;
56435;SDS011;42335;44.872;20.658;2024-01-30T11:30:45;8.93;;;7.15;;
56435;SDS011;42335;44.872;20.658;2024-01-30T11:33:13;9.27;;;7.10;;
56435;SDS011;42335;44.872;20.658;2024-01-30T11:38:07;9.25;;;6.95;;
56435;SDS011;42335;44.872;20.658;2024-01-30T11:40:34;11.90;;;7.22;;
56435;SDS011;42335;44.872;20.658;2024-01-30T11:43:03;9.65;;;7.13;;
56435;SDS011;42335;44.872;20.658;2024-01-30T11:45:31;8.48;;;6.85;;
56435;SDS011;42335;44.872;20.658;2024-01-30T11:47:58;9.35;;;7.35;;
56435;SDS011;42335;44.872;20.658;2024-01-30T11:50:26;8.88;;;6.60;;
56435;SDS011;42335;44.872;20.658;2024-01-30T11:52:53;9.68;;;6.15;;
56435;SDS011;42335;44.872;20.658;2024-01-30T11:55:19;8.38;;;6.72;;
56435;SDS011;42335;44.872;20.658;2024-01-30T11:57:45;14.90;;;7.18;;
56435;SDS011;42335;44.872;20.658;2024-01-30T12:00:17;11.18;;;6.78;;
56435;SDS011;42335;44.872;20.658;2024-01-30T12:02:44;9.82;;;5.97;;
56435;SDS011;42335;44.872;20.658;2024-01-30T12:05:15;11.68;;;5.82;;
56435;SDS011;42335;44.872;20.658;2024-01-30T12:07:43;7.97;;;6.78;;
56435;SDS011;42335;44.872;20.658;2024-01-30T12:10:11;8.27;;;5.90;;
56435;SDS011;42335;44.872;20.658;2024-01-30T12:12:38;10.38;;;6.75;;
56435;SDS011;42335;44.872;20.658;2024-01-30T12:15:06;11.43;;;7.10;;
56435;SDS011;42335;44.872;20.658;2024-01-30T12:17:33;7.65;;;6.35;;
56435;SDS011;42335;44.872;20.658;2024-01-30T12:20:12;12.98;;;6.72;;
56435;SDS011;42335;44.872;20.658;2024-01-30T12:25:15;6.90;;;5.53;;
56435;SDS011;42335;44.872;20.658;2024-01-30T12:27:42;9.35;;;6.43;;
56435;SDS011;42335;44.872;20.658;2024-01-30T12:30:10;8.60;;;5.60;;
56435;SDS011;42335;44.872;20.658;2024-01-30T12:32:38;9.50;;;6.75;;
56435;SDS011;42335;44.872;20.658;2024-01-30T12:35:18;9.95;;;6.53;;
56435;SDS011;42335;44.872;20.658;2024-01-30T12:37:45;10.05;;;7.80;;
56435;SDS011;42335;44.872;20.658;2024-01-30T12:40:13;13.25;;;8.98;;
56435;SDS011;42335;44.872;20.658;2024-01-30T12:42:43;18.42;;;10.93;;
56435;SDS011;42335;44.872;20.658;2024-01-30T12:45:13;14.50;;;9.82;;
56435;SDS011;42335;44.872;20.658;2024-01-30T12:47:40;15.52;;;9.60;;
56435;SDS011;42335;44.872;20.658;2024-01-30T12:50:06;18.38;;;9.80;;
56435;SDS011;42335;44.872;20.658;2024-01-30T12:52:32;15.48;;;11.52;;
56435;SDS011;42335;44.872;20.658;2024-01-30T12:54:58;22.92;;;13.13;;
56435;SDS011;42335;44.872;20.658;2024-01-30T12:57:24;20.40;;;11.50;;
56435;SDS011;42335;44.872;20.658;2024-01-30T12:59:49;19.95;;;12.55;;
56435;SDS011;42335;44.872;20.658;2024-01-30T13:02:15;16.27;;;11.52;;
56435;SDS011;42335;44.872;20.658;2024-01-30T13:04:42;22.20;;;12.15;;
56435;SDS011;42335;44.872;20.658;2024-01-30T13:07:08;22.35;;;13.57;;
56435;SDS011;42335;44.872;20.658;2024-01-30T13:09:34;23.50;;;11.00;;
56435;SDS011;42335;44.872;20.658;2024-01-30T13:12:00;19.23;;;9.05;;
56435;SDS011;42335;44.872;20.658;2024-01-30T13:14:26;14.15;;;9.35;;
56435;SDS011;42335;44.872;20.658;2024-01-30T13:16:52;16.25;;;10.75;;
56435;SDS011;42335;44.872;20.658;2024-01-30T13:19:18;19.55;;;11.02;;
56435;SDS011;42335;44.872;20.658;2024-01-30T13:21:43;20.00;;;10.38;;
56435;SDS011;42335;44.872;20.658;2024-01-30T13:24:09;13.80;;;9.38;;
56435;SDS011;42335;44.872;20.658;2024-01-30T13:26:35;16.90;;;10.55;;
56435;SDS011;42335;44.872;20.658;2024-01-30T13:29:01;18.77;;;10.32;;
56435;SDS011;42335;44.872;20.658;2024-01-30T13:31:28;13.43;;;10.05;;
56435;SDS011;42335;44.872;20.658;2024-01-30T13:33:55;14.57;;;9.57;;
56435;SDS011;42335;44.872;20.658;2024-01-30T13:36:21;22.60;;;9.88;;
56435;SDS011;42335;44.872;20.658;2024-01-30T13:38:47;20.20;;;11.77;;
56435;SDS011;42335;44.872;20.658;2024-01-30T13:41:13;19.25;;;10.25;;
56435;SDS011;42335;44.872;20.658;2024-01-30T13:43:39;18.95;;;10.05;;
56435;SDS011;42335;44.872;20.658;2024-01-30T13:46:05;13.60;;;9.10;;
56435;SDS011;42335;44.872;20.658;2024-01-30T13:48:31;18.02;;;10.10;;
56435;SDS011;42335;44.872;20.658;2024-01-30T13:50:57;21.50;;;10.07;;
56435;SDS011;42335;44.872;20.658;2024-01-30T13:53:22;11.50;;;8.65;;
56435;SDS011;42335;44.872;20.658;2024-01-30T13:55:48;13.10;;;8.55;;
56435;SDS011;42335;44.872;20.658;2024-01-30T13:58:14;12.50;;;8.52;;
56435;SDS011;42335;44.872;20.658;2024-01-30T14:00:40;13.55;;;8.98;;
56435;SDS011;42335;44.872;20.658;2024-01-30T14:03:06;14.05;;;9.45;;
56435;SDS011;42335;44.872;20.658;2024-01-30T14:05:32;13.30;;;9.05;;
56435;SDS011;42335;44.872;20.658;2024-01-30T14:07:58;12.68;;;8.73;;
56435;SDS011;42335;44.872;20.658;2024-01-30T14:10:24;39.53;;;17.08;;
56435;SDS011;42335;44.872;20.658;2024-01-30T14:12:50;28.83;;;15.02;;